RJFKRJFT

Guest
Details From RJFK - KAGOSHIMA
To RJFT - KUMAMOTO
Flight Number -
Tags generated
Created
Modified
Stats Distance 63 nm / 117 km
Max Altitude 100 ft / 30 m
Waypoints 3
Social Downloads 0
Likes 0
Share VATSIM

Download

Looking for another format? Having issues loading an existing format? Contact us
Advertisement - Login to hide

Notes

Basic altitude profile: - Ascent Rate: 2500ft/min - Ascent Speed: 250kts - Cruise Altitude: 35000ft - Cruise Speed: 420kts - Descent Rate: 1500ft/min - Descent Speed: 250kts Options: - Use NATs: yes - Use PACOTS: yes - Use low airways: yes - Use high airways: yes

Route

RJFK KUE RJFT

ID Type Via Altitude Latitude Longitude Leg Dist Tot Dist Heading (true) Name
O RJFK APT - 0 ft / 0 m 31.80340˚ 130.71941˚ - 0 nm - KAGOSHIMA
KUE VOR - 100 ft / 30 m 32.83480˚ 130.84151˚ 62 nm 62 nm 6° / 6° KUMAMOTO VOR-DME
O RJFT APT - 0 ft / 0 m 32.83732˚ 130.85505˚ 0 nm 62 nm 78° / 78° KUMAMOTO

Altitude Profile

Advertisement - Login to hide

RJFK

Details ICAO RJFK (KOJ)
Name KAGOSHIMA
Region Japan
Timezone Asia/Tokyo (UTC+9.0)
Stats Elevation 906 ft / 276 m (AMSL)
Location 31.803400° 130.719405°
Runways 1
Magnetic Variation 6.910° W

METAR

Not found

TAF

TAF RJFK 111709Z 1118/1300 32011KT 9999 FEW005 SCT020 BKN030 TEMPO 1200/1206 32017G27KT

Decode

Departure Runways

ID Width Length Bearing (true) Bearing (mag) Surface Threshold Offset Overrun Length
16 150 ft / 46 m 9,861 ft / 3,006 m 150.11° 157.02° Asphalt 0 ft / 0 m 200 ft / 61 m
34 150 ft / 46 m 9,861 ft / 3,006 m 330.11° 337.02° Asphalt 0 ft / 0 m 200 ft / 61 m

RJFT

Details ICAO RJFT (KMJ)
Name KUMAMOTO
Region Japan
Timezone Asia/Tokyo (UTC+9.0)
Stats Elevation 642 ft / 196 m (AMSL)
Location 32.837318° 130.855052°
Runways 1
Magnetic Variation 7.225° W

METAR

Not found

TAF

TAF RJFT 111708Z 1118/1300 31007KT 9999 FEW015 SCT030 BKN050 BECMG 1209/1212 05004KT

Decode

Destination Runways

ID Width Length Bearing (true) Bearing (mag) Surface Threshold Offset Overrun Length
07 150 ft / 46 m 9,833 ft / 2,997 m 64.47° 71.69° Asphalt 0 ft / 0 m 200 ft / 61 m
25 150 ft / 46 m 9,833 ft / 2,997 m 244.49° 251.71° Asphalt 0 ft / 0 m 200 ft / 61 m

Approach Navaids

Runway Type Ident Frequency Range Bearing (true) Bearing (mag) Slope Elevation
07 Localiser IKU 109.30 MHz 18 nm / 33 km 64.49° 71.71° - 642 ft / 196 m (AMSL)
07 Glidescope IKU 109.30 MHz 10 nm / 19 km 64.48° 71.71° 3.00° 651 ft / 198 m (AMSL)